Time;durP1;ratioP1;P1;durP2;ratioP2;P2;SDS_P1;SDS_P2;PMS_P1;PMS_P2;Temp;Humidity;BMP_temperature;BMP_pressure;BME280_temperature;BME280_humidity;BME280_pressure;Samples;Min_cycle;Max_cycle;Signal;HPM_P1;HPM_P2
2020/12/01 00:00:34;;;;;;;31.98;16.10;;;-3276.40;77.30;;;-2.92;79.27;96281.28;5006338;28;20033;-66
2020/12/01 00:03:00;;;;;;;30.60;16.38;;;-3276.40;77.20;;;-2.93;79.20;96292.50;5029329;28;20025;-66
2020/12/01 00:05:26;;;;;;;32.65;16.92;;;-3276.40;77.30;;;-2.97;79.09;96274.75;4997889;28;20408;-66
2020/12/01 00:07:52;;;;;;;34.25;16.65;;;-3276.40;77.40;;;-3.00;79.30;96278.38;5001854;28;20041;-66
2020/12/01 00:10:18;;;;;;;35.75;17.00;;;-3276.30;77.90;;;-2.99;79.41;96280.00;5023970;28;20061;-66
2020/12/01 00:12:44;;;;;;;33.80;16.55;;;-3276.30;77.90;;;-3.01;79.28;96276.72;5011434;28;20037;-66
2020/12/01 00:15:15;;;;;;;35.28;16.85;;;-3276.30;77.60;;;-3.02;79.31;96280.22;4993721;28;20117;-66
2020/12/01 00:17:41;;;;;;;39.97;18.45;;;-3276.30;77.80;;;-3.03;79.50;96288.03;5030274;28;20526;-66
2020/12/01 00:20:07;;;;;;;38.28;17.50;;;-3276.20;77.90;;;-3.07;79.41;96284.84;5010097;28;20156;-66
2020/12/01 00:22:33;;;;;;;40.50;18.13;;;-3276.20;77.90;;;-3.09;79.66;96274.66;5010747;28;20093;-66
2020/12/01 00:24:59;;;;;;;37.90;18.35;;;-3276.20;78.10;;;-3.11;79.63;96268.78;5008423;28;20026;-66
2020/12/01 00:27:25;;;;;;;38.45;18.75;;;-3276.10;78.00;;;-3.13;79.33;96275.78;4998708;28;20088;-64
2020/12/01 00:29:50;;;;;;;38.70;17.45;;;-3276.20;77.90;;;-3.14;79.35;96270.75;5017876;28;20053;-64
2020/12/01 00:32:16;;;;;;;36.63;17.10;;;-3276.20;77.90;;;-3.14;79.49;96263.84;5026642;28;20131;-64
2020/12/01 00:34:42;;;;;;;33.70;16.63;;;-3276.20;77.70;;;-3.15;79.64;96259.63;5012569;28;20117;-65
2020/12/01 00:37:08;;;;;;;38.17;17.58;;;-3276.20;77.50;;;-3.18;79.28;96249.53;4980586;28;20045;-65
2020/12/01 00:39:33;;;;;;;35.17;16.75;;;-3276.10;77.80;;;-3.18;79.58;96249.53;5003723;28;20121;-65
2020/12/01 00:41:59;;;;;;;34.55;16.30;;;-3276.10;77.80;;;-3.19;79.66;96247.88;5009432;28;20034;-64
2020/12/01 00:44:25;;;;;;;35.83;16.73;;;-3276.20;77.70;;;-3.21;79.36;96231.72;4984022;28;20117;-64
2020/12/01 00:46:51;;;;;;;33.63;16.02;;;-3276.10;77.80;;;-3.21;79.84;96236.88;4993271;28;20120;-65
2020/12/01 00:49:16;;;;;;;34.65;17.15;;;-3276.10;77.80;;;-3.23;79.59;96238.72;5011028;28;20065;-64
2020/12/01 00:51:42;;;;;;;30.48;15.35;;;-3276.10;77.60;;;-3.24;79.79;96242.22;4993839;28;20029;-64
2020/12/01 00:54:09;;;;;;;32.45;16.65;;;-3276.00;78.10;;;-3.25;79.56;96235.44;4994559;28;20038;-64
2020/12/01 00:56:35;;;;;;;30.10;15.20;;;-3276.10;78.10;;;-3.25;79.66;96227.72;5009264;28;20026;-65
2020/12/01 00:59:00;;;;;;;34.47;16.88;;;-3276.00;78.10;;;-3.26;79.51;96218.34;5020714;28;20022;-65
2020/12/01 01:01:27;;;;;;;36.78;16.90;;;-3276.00;78.30;;;-3.28;79.94;96209.91;5013105;28;20119;-64
2020/12/01 01:03:52;;;;;;;35.22;16.35;;;-3276.00;78.30;;;-3.27;79.72;96213.31;5029278;28;20032;-64
2020/12/01 01:06:18;;;;;;;32.53;15.30;;;-3276.00;78.30;;;-3.27;80.14;96209.00;5021532;28;20030;-65
2020/12/01 01:08:44;;;;;;;34.80;16.23;;;-3276.10;78.40;;;-3.24;79.81;96210.53;4997841;28;20049;-65
2020/12/01 01:11:10;;;;;;;32.50;16.10;;;-3276.00;78.40;;;-3.24;80.18;96208.78;4978978;28;20106;-65
2020/12/01 01:13:37;;;;;;;32.92;15.20;;;-3276.10;78.50;;;-3.21;80.03;96203.44;4994746;28;20034;-65
2020/12/01 01:16:03;;;;;;;28.90;15.07;;;-3276.20;78.50;;;-3.20;80.21;96199.94;5009344;28;20046;-65
2020/12/01 01:18:29;;;;;;;30.15;15.05;;;-3276.20;78.30;;;-3.17;80.05;96186.88;5003779;28;20122;-65
2020/12/01 01:20:54;;;;;;;31.17;15.20;;;-3276.20;78.30;;;-3.14;80.32;96188.44;4983459;28;20112;-65
2020/12/01 01:23:20;;;;;;;29.88;15.55;;;-3276.30;78.30;;;-3.14;80.51;96189.25;4998862;28;20115;-65
2020/12/01 01:25:46;;;;;;;31.80;16.02;;;-3276.20;78.20;;;-3.10;79.90;96190.69;4995984;28;20037;-65
2020/12/01 01:28:11;;;;;;;28.50;14.95;;;-3276.30;78.30;;;-3.09;80.27;96192.31;5027894;28;20037;-65
2020/12/01 01:30:39;;;;;;;29.30;15.52;;;-3276.30;78.30;;;-3.03;80.12;96191.09;5007241;28;20128;-65
2020/12/01 01:33:07;;;;;;;30.55;15.38;;;-3276.30;78.20;;;-3.00;79.91;96185.72;4992418;28;20117;-65
2020/12/01 01:35:34;;;;;;;28.95;14.68;;;-3276.30;78.10;;;-2.97;80.03;96197.56;5002341;28;20030;-65
2020/12/01 01:38:03;;;;;;;33.38;15.68;;;-3276.30;78.10;;;-2.99;80.36;96187.38;5010140;28;20056;-65
2020/12/01 01:40:29;;;;;;;28.23;14.85;;;-3276.30;78.20;;;-3.00;79.87;96196.03;5015549;28;20532;-65
2020/12/01 01:42:56;;;;;;;28.85;15.57;;;-3276.20;78.20;;;-3.00;80.06;96190.06;4965811;28;20042;-65
2020/12/01 01:45:45;;;;;;;30.50;14.43;;;-3276.30;78.30;;;-3.00;81.35;96184.91;4984615;28;20034;-65
2020/12/01 01:48:22;;;;;;;30.67;14.90;;;-3276.30;78.30;;;-3.01;81.01;96178.13;5007004;28;20038;-65
2020/12/01 01:51:13;;;;;;;31.90;15.05;;;-3276.30;78.30;;;-3.01;81.32;96188.41;4991180;28;20044;-65
2020/12/01 01:53:42;;;;;;;29.67;15.10;;;-3276.20;78.20;;;-3.03;80.47;96185.13;5007630;28;20069;-65
2020/12/01 01:56:09;;;;;;;30.23;15.55;;;-3276.20;78.40;;;-3.06;80.19;96183.56;4985764;28;20073;-65
2020/12/01 01:58:38;;;;;;;30.05;14.95;;;-3276.20;78.80;;;-3.04;80.56;96188.63;5001072;28;20501;-65
2020/12/01 02:01:07;;;;;;;32.33;15.63;;;-3276.30;78.60;;;-3.05;80.61;96181.81;5008651;28;20029;-65
2020/12/01 02:03:48;;;;;;;32.85;16.08;;;-3276.20;78.50;;;-3.05;81.40;96176.69;5001391;28;20058;-66
2020/12/01 02:06:23;;;;;;;34.08;15.57;;;-3276.30;78.60;;;-3.05;81.03;96177.50;5008218;28;20578;-65
2020/12/01 02:08:57;;;;;;;32.40;15.98;;;-3276.30;78.50;;;-3.05;81.05;96171.53;5005154;28;20030;-65
2020/12/01 02:11:23;;;;;;;32.50;15.43;;;-3276.20;78.50;;;-3.05;80.20;96176.69;4991940;28;20038;-65
2020/12/01 02:14:07;;;;;;;32.15;15.60;;;-3276.30;78.40;;;-3.03;81.51;96161.97;4975810;28;20095;-65
2020/12/01 02:16:35;;;;;;;31.98;15.68;;;-3276.30;78.60;;;-3.04;80.38;96153.41;4997555;28;20029;-65
2020/12/01 02:19:01;;;;;;;34.25;15.60;;;-3276.30;78.40;;;-3.03;80.61;96149.09;5016752;28;20030;-66
2020/12/01 02:21:40;;;;;;;31.88;15.63;;;-3276.30;78.30;;;-3.02;81.29;96150.75;4989785;28;20037;-65
2020/12/01 02:24:10;;;;;;;34.67;15.73;;;-3276.30;78.40;;;-3.01;80.56;96139.53;5011553;28;20109;-66
2020/12/01 02:26:36;;;;;;;28.90;14.70;;;-3276.40;78.40;;;-3.00;80.64;96138.59;5026688;28;20037;-66
2020/12/01 02:29:06;;;;;;;32.22;15.70;;;-3276.30;78.40;;;-3.00;80.42;96141.16;4994922;28;20464;-66
2020/12/01 02:31:32;;;;;;;31.65;15.27;;;-3276.30;78.50;;;-2.99;80.32;96135.09;4986808;28;20044;-66
2020/12/01 02:33:58;;;;;;;30.42;14.50;;;-3276.30;78.30;;;-3.00;80.69;96126.53;5014503;28;20069;-66
2020/12/01 02:36:23;;;;;;;30.90;15.65;;;-3276.40;78.50;;;-2.99;80.43;96129.94;5028656;28;20040;-66
2020/12/01 02:38:49;;;;;;;29.98;15.85;;;-3276.40;78.30;;;-3.00;80.73;96116.25;5007653;28;20038;-65
2020/12/01 02:41:15;;;;;;;31.02;15.38;;;-3276.40;78.20;;;-2.99;80.92;96119.66;5007445;28;20053;-65
2020/12/01 02:43:41;;;;;;;33.83;15.65;;;-3276.40;78.00;;;-2.98;80.57;96116.97;5007995;28;20420;-65
2020/12/01 02:46:07;;;;;;;31.85;15.40;;;-3276.40;78.10;;;-2.98;80.57;96111.00;5004274;28;21527;-65
2020/12/01 02:48:33;;;;;;;31.73;16.02;;;-3276.40;78.20;;;-3.02;80.50;96100.09;5005881;28;20157;-65
2020/12/01 02:50:58;;;;;;;31.60;15.55;;;-3276.30;78.40;;;-3.03;80.88;96102.78;4995821;28;20041;-65
2020/12/01 02:53:24;;;;;;;31.70;16.02;;;-3276.30;78.50;;;-3.10;80.61;96092.91;5001354;28;20115;-65
2020/12/01 02:55:50;;;;;;;30.70;15.73;;;-3276.20;78.80;;;-3.09;80.72;96094.56;4984928;28;20045;-65
2020/12/01 02:58:16;;;;;;;31.27;16.00;;;-3276.10;78.90;;;-3.11;80.95;96082.75;5023345;28;20120;-65
2020/12/01 03:00:43;;;;;;;31.58;15.43;;;-3276.10;79.00;;;-3.13;80.94;96085.41;5025347;28;20084;-65
2020/12/01 03:03:10;;;;;;;30.67;16.15;;;-3276.10;79.20;;;-3.15;80.57;96086.47;5019877;28;20413;-65
2020/12/01 03:05:35;;;;;;;28.10;15.10;;;-3276.10;79.10;;;-3.15;80.70;96082.13;5007099;28;20030;-66
2020/12/01 03:08:01;;;;;;;32.15;15.13;;;-3276.10;79.00;;;-3.15;81.02;96091.59;4991585;28;20063;-65
2020/12/01 03:10:27;;;;;;;32.08;15.27;;;-3276.10;79.00;;;-3.16;80.77;96082.25;5001167;28;20054;-66
2020/12/01 03:12:53;;;;;;;31.85;15.52;;;-3276.00;78.90;;;-3.18;80.81;96078.91;5025446;28;20034;-65
2020/12/01 03:15:19;;;;;;;29.55;14.52;;;-3276.00;79.20;;;-3.20;80.77;96081.59;5009673;28;20143;-65
2020/12/01 03:17:45;;;;;;;32.53;15.25;;;-3276.00;79.40;;;-3.20;80.94;96080.78;4991839;28;20034;-65
2020/12/01 03:20:10;;;;;;;29.13;15.00;;;-3276.00;79.40;;;-3.19;80.97;96078.09;4987780;28;20035;-66
2020/12/01 03:22:36;;;;;;;31.95;15.82;;;-3276.00;79.30;;;-3.18;81.03;96079.75;4988806;28;20037;-65
2020/12/01 03:25:02;;;;;;;31.98;16.20;;;-3276.00;79.10;;;-3.17;80.75;96075.41;5008088;28;20492;-65
2020/12/01 03:27:28;;;;;;;30.67;15.27;;;-3276.10;79.20;;;-3.16;80.86;96075.34;5023665;28;20512;-65
2020/12/01 03:29:53;;;;;;;29.45;15.10;;;-3276.10;79.20;;;-3.14;80.98;96070.91;5026969;28;20128;-65
2020/12/01 03:32:22;;;;;;;33.38;15.57;;;-3276.10;79.10;;;-3.11;80.60;96070.69;5029016;28;20037;-65
2020/12/01 03:34:47;;;;;;;31.98;15.88;;;-3276.10;78.90;;;-3.11;80.76;96068.13;5020078;28;20121;-65
2020/12/01 03:37:13;;;;;;;35.20;16.17;;;-3276.10;78.90;;;-3.10;80.61;96067.19;5006246;28;20418;-65
2020/12/01 03:39:39;;;;;;;29.33;15.35;;;-3276.20;79.10;;;-3.10;81.07;96067.19;4995680;28;20034;-65
2020/12/01 03:42:04;;;;;;;30.45;15.05;;;-3276.20;79.10;;;-3.08;81.06;96065.34;5023901;28;20073;-65
2020/12/01 03:44:30;;;;;;;33.30;15.95;;;-3276.20;79.00;;;-3.06;81.22;96059.25;5026004;28;20104;-65
2020/12/01 03:46:57;;;;;;;31.98;15.98;;;-3276.20;79.10;;;-3.04;81.03;96057.41;5022265;28;20037;-65
2020/12/01 03:49:23;;;;;;;30.95;15.27;;;-3276.30;79.10;;;-3.02;80.98;96052.97;4993173;28;20050;-65
2020/12/01 03:51:49;;;;;;;32.75;15.45;;;-3276.30;79.10;;;-3.01;80.99;96052.03;5009496;28;20092;-65
2020/12/01 03:54:15;;;;;;;30.45;15.68;;;-3276.30;79.00;;;-2.98;80.96;96042.34;4993733;28;20030;-65
2020/12/01 03:56:40;;;;;;;33.33;15.05;;;-3276.30;79.00;;;-2.98;80.86;96041.53;4986874;28;20062;-65
2020/12/01 03:59:06;;;;;;;30.95;15.98;;;-3276.30;78.90;;;-2.97;80.73;96031.13;5037982;28;20093;-66
2020/12/01 04:01:32;;;;;;;32.03;15.75;;;-3276.30;78.90;;;-2.95;80.91;96029.25;4992278;28;20498;-65
2020/12/01 04:03:58;;;;;;;29.55;14.90;;;-3276.30;78.90;;;-2.96;80.66;96026.78;5003524;28;20123;-66
2020/12/01 04:06:23;;;;;;;29.08;14.77;;;-3276.30;79.00;;;-2.99;80.94;96014.97;5023108;28;20054;-65
2020/12/01 04:08:49;;;;;;;30.48;15.07;;;-3276.20;79.10;;;-2.98;81.39;96018.38;5028108;28;20565;-65
2020/12/01 04:11:16;;;;;;;31.85;15.35;;;-3276.20;79.20;;;-2.98;81.29;96013.22;5008121;28;20069;-65
2020/12/01 04:13:41;;;;;;;34.55;14.40;;;-3276.30;79.10;;;-2.98;81.15;96002.94;5017257;28;20044;-65
2020/12/01 04:16:07;;;;;;;30.70;14.60;;;-3276.20;79.30;;;-2.96;81.19;95995.91;5013054;28;20037;-65
2020/12/01 04:18:33;;;;;;;33.38;16.25;;;-3276.30;79.30;;;-2.95;81.41;96002.69;5019580;28;20072;-65
2020/12/01 04:20:58;;;;;;;31.58;14.95;;;-3276.20;79.30;;;-2.96;81.12;96006.22;5005619;28;20049;-66
2020/12/01 04:23:24;;;;;;;28.90;14.43;;;-3276.10;79.60;;;-2.98;81.20;95996.03;5012968;28;20164;-65
2020/12/01 04:25:50;;;;;;;30.92;14.80;;;-3276.20;79.80;;;-2.97;81.61;95989.13;4995939;28;20061;-66
2020/12/01 04:28:16;;;;;;;27.92;14.57;;;-3276.20;79.80;;;-2.97;81.65;95984.81;5029229;28;20062;-65
2020/12/01 04:30:41;;;;;;;31.75;14.45;;;-3276.20;79.80;;;-2.95;81.48;95987.25;4987528;28;20025;-65
2020/12/01 04:33:07;;;;;;;28.60;14.48;;;-3276.20;79.80;;;-2.97;81.38;95979.66;5027481;28;20034;-65
2020/12/01 04:35:33;;;;;;;27.23;14.00;;;-3276.10;80.10;;;-2.97;81.64;95971.13;5012882;28;20480;-65
2020/12/01 04:38:03;;;;;;;29.17;14.75;;;-3276.20;80.20;;;-2.95;81.36;95976.97;5026144;28;20413;-66
2020/12/01 04:40:32;;;;;;;28.98;14.23;;;-3276.30;80.10;;;-2.91;81.49;95978.41;5022837;28;20065;-65
2020/12/01 04:43:03;;;;;;;27.52;14.07;;;-3276.30;80.00;;;-2.90;81.85;95969.78;4995008;28;20041;-65
2020/12/01 04:45:28;;;;;;;28.52;14.00;;;-3276.30;80.00;;;-2.89;81.51;95973.97;5013451;28;20037;-65
2020/12/01 04:48:04;;;;;;;27.95;14.13;;;-3276.30;80.20;;;-2.89;82.34;95968.84;5015461;28;20441;-65
2020/12/01 04:50:34;;;;;;;26.90;14.32;;;-3276.30;80.10;;;-2.88;81.99;95973.88;4992649;28;20041;-65
2020/12/01 04:53:26;;;;;;;27.27;13.95;;;-3276.30;80.10;;;-2.88;82.52;95966.16;5011996;28;20046;-65
2020/12/01 04:56:13;;;;;;;28.52;14.23;;;-3276.30;80.20;;;-2.88;82.94;95970.47;4995414;28;20026;-65
2020/12/01 04:58:58;;;;;;;28.83;14.55;;;-3276.30;80.20;;;-2.85;82.23;95953.06;5016354;28;20036;-67
2020/12/01 05:02:05;;;;;;;27.65;14.55;;;-3276.30;80.20;;;-2.83;82.59;95958.09;5028277;28;20088;-67
2020/12/01 05:05:07;;;;;;;33.35;14.23;;;-3276.30;80.40;;;-2.83;82.94;95948.63;5022783;28;20061;-70
2020/12/01 05:07:46;;;;;;;27.08;13.45;;;-3276.30;80.20;;;-2.82;82.13;95945.09;4995627;28;20506;-70
2020/12/01 05:10:14;;;;;;;29.33;14.25;;;-3276.30;80.30;;;-2.78;81.82;95948.28;4983486;28;20591;-66
2020/12/01 05:12:44;;;;;;;28.52;14.27;;;-3276.40;80.00;;;-2.74;82.38;95944.53;5019831;28;20026;-65
2020/12/01 05:15:30;;;;;;;30.15;15.57;;;-3276.50;80.10;;;-2.73;82.51;95943.63;4985851;28;20538;-65
2020/12/01 05:18:03;;;;;;;31.70;15.68;;;-3276.50;80.00;;;-2.71;82.09;95938.38;5000942;28;20519;-65
2020/12/01 05:20:29;;;;;;;29.65;14.90;;;-3276.40;80.10;;;-2.70;81.57;95927.97;5027543;28;20412;-65
2020/12/01 05:23:01;;;;;;;31.30;14.98;;;-3276.50;80.10;;;-2.67;82.49;95934.66;5000439;28;20072;-65
2020/12/01 05:25:29;;;;;;;29.45;14.10;;;-3276.50;80.00;;;-2.67;81.98;95921.78;5007797;28;20107;-65
2020/12/01 05:28:22;;;;;;;31.63;14.45;;;-3276.50;79.90;;;-2.64;83.18;95912.06;4991152;28;20176;-65
2020/12/01 05:30:59;;;;;;;29.02;13.65;;;-3276.50;80.00;;;-2.60;82.73;95917.81;5013711;28;20153;-65
2020/12/01 05:33:27;;;;;;;26.08;13.75;;;-3276.60;80.10;;;-2.57;81.92;95926.13;5017547;28;20149;-65
2020/12/01 05:36:21;;;;;;;27.98;13.93;;;-3276.60;80.10;;;-2.55;83.02;95908.81;5027683;28;20087;-65
2020/12/01 05:38:57;;;;;;;28.13;14.07;;;-3276.70;80.20;;;-2.54;82.97;95923.31;4998333;28;20041;-65
2020/12/01 05:41:29;;;;;;;26.85;12.82;;;-3276.60;80.30;;;-2.51;82.04;95925.66;5007404;28;20061;-65
2020/12/01 05:44:01;;;;;;;27.25;13.82;;;-3276.70;80.20;;;-2.50;82.67;95917.00;5012140;28;20041;-65
2020/12/01 05:46:32;;;;;;;27.70;13.27;;;-3276.70;80.20;;;-2.48;82.51;95910.00;5008086;28;20117;-65
2020/12/01 05:49:19;;;;;;;24.50;12.65;;;-3276.70;80.30;;;-2.45;82.21;95908.13;5027413;28;20485;-65
2020/12/01 05:51:47;;;;;;;31.73;12.88;;;-3276.70;80.60;;;-2.42;82.27;95920.78;5013750;28;20330;-65
2020/12/01 05:54:16;;;;;;;25.98;13.73;;;0.00;80.50;;;-2.41;81.92;95912.13;4986645;28;20053;-68
2020/12/01 05:56:51;;;;;;;25.77;13.20;;;0.00;80.20;;;-2.39;83.04;95912.81;4994122;28;20052;-67
2020/12/01 05:59:21;;;;;;;28.70;13.68;;;0.00;80.30;;;-2.40;81.99;95919.72;4975351;28;20046;-68
2020/12/01 06:01:49;;;;;;;28.25;13.32;;;0.00;80.60;;;-2.39;82.22;95913.66;4983670;28;20137;-68
2020/12/01 06:04:17;;;;;;;24.58;13.13;;;0.00;80.80;;;-2.36;82.17;95904.88;5004860;28;20053;-68
2020/12/01 06:07:12;;;;;;;24.27;12.57;;;0.00;80.60;;;-2.33;83.61;95908.03;4984059;28;20048;-68
2020/12/01 06:09:56;;;;;;;25.40;13.65;;;0.10;80.40;;;-2.31;83.23;95895.03;5008666;28;20185;-68
2020/12/01 06:12:49;;;;;;;25.83;12.18;;;0.00;80.20;;;-2.34;83.24;95895.25;5008310;28;20429;-68
2020/12/01 06:15:19;;;;;;;26.63;12.80;;;-3276.70;80.70;;;-2.36;82.67;95889.41;5009071;28;20060;-68
2020/12/01 06:18:16;;;;;;;27.67;12.85;;;-3276.70;80.90;;;-2.36;83.36;95897.13;5002980;28;20029;-69
2020/12/01 06:20:59;;;;;;;24.08;12.25;;;-3276.70;80.90;;;-2.37;83.38;95885.19;5007098;28;20073;-68
2020/12/01 06:23:53;;;;;;;24.60;12.43;;;-3276.70;81.10;;;-2.38;83.38;95888.72;4993156;28;20031;-68
2020/12/01 06:26:47;;;;;;;27.15;12.55;;;-3276.70;81.30;;;-2.39;84.09;95881.91;5010904;28;20030;-67
2020/12/01 06:29:35;;;;;;;25.15;11.55;;;-3276.70;81.60;;;-2.39;83.18;95876.75;5029811;28;20556;-68
2020/12/01 06:32:45;;;;;;;26.00;11.57;;;-3276.60;81.70;;;-2.40;84.00;95885.44;5026613;28;20148;-72
2020/12/01 06:35:41;;;;;;;27.60;12.60;;;-3276.70;81.80;;;-2.41;84.17;95879.47;4991494;28;20121;-71
2020/12/01 06:38:13;;;;;;;25.15;12.00;;;-3276.70;81.90;;;-2.40;83.23;95878.53;4997614;28;20052;-71
2020/12/01 06:40:46;;;;;;;24.70;11.88;;;-3276.70;82.10;;;-2.39;83.50;95872.44;5008274;28;20363;-71
2020/12/01 06:43:37;;;;;;;25.90;12.52;;;-3276.70;82.20;;;-2.36;84.50;95866.22;4996940;28;20036;-68
2020/12/01 06:46:04;;;;;;;23.75;12.13;;;0.00;82.40;;;-2.34;83.34;95872.09;4990804;28;20124;-67
2020/12/01 06:48:44;;;;;;;25.10;12.15;;;0.00;82.90;;;-2.31;84.40;95864.13;5007000;28;20022;-63
2020/12/01 06:51:11;;;;;;;24.27;11.77;;;0.00;82.30;;;-2.30;82.99;95870.91;5017838;28;20037;-68
2020/12/01 06:53:38;;;;;;;29.27;11.70;;;0.10;82.20;;;-2.29;82.95;95857.91;4964514;28;20472;-69
2020/12/01 06:56:06;;;;;;;23.52;12.10;;;0.00;82.00;;;-2.28;83.28;95861.31;4992806;28;20034;-66
2020/12/01 06:58:34;;;;;;;24.83;12.13;;;0.00;82.20;;;-2.27;83.61;95857.78;5019832;28;20057;-69
2020/12/01 07:01:29;;;;;;;23.20;11.85;;;0.10;82.10;;;-2.27;84.83;95853.47;5026420;28;20030;-69
2020/12/01 07:04:13;;;;;;;19.05;10.13;;;0.10;82.00;;;-2.26;84.40;95856.88;5009059;28;20072;-68
2020/12/01 07:06:47;;;;;;;21.58;10.55;;;0.10;82.20;;;-2.25;83.90;95856.78;5034427;28;20033;-68
2020/12/01 07:09:17;;;;;;;19.88;10.23;;;0.10;82.30;;;-2.19;83.49;95858.88;5021126;28;20041;-70
2020/12/01 07:12:22;;;;;;;21.75;9.93;;;0.10;82.10;;;-2.17;84.08;95862.16;5035971;28;20037;-65
2020/12/01 07:15:09;;;;;;;21.67;10.20;;;0.10;81.90;;;-2.16;83.79;95862.97;5003275;28;20033;-65
2020/12/01 07:17:35;;;;;;;18.00;9.48;;;0.10;82.00;;;-2.15;83.01;95859.44;5021477;28;20055;-67
2020/12/01 07:20:17;;;;;;;19.73;9.98;;;0.10;82.00;;;-2.14;83.69;95857.69;5045787;28;20519;-67
2020/12/01 07:23:38;;;;;;;17.38;9.88;;;0.10;82.00;;;-2.11;84.71;95858.28;5017434;28;20029;-67
2020/12/01 07:26:38;;;;;;;18.80;9.30;;;0.20;81.90;;;-2.11;85.17;95863.44;5043700;28;20041;-68
2020/12/01 07:29:18;;;;;;;20.45;9.65;;;0.20;82.40;;;-2.10;84.91;95866.81;5014734;28;20053;-69
2020/12/01 07:31:44;;;;;;;18.48;10.10;;;0.20;82.70;;;-2.10;83.32;95865.06;4985591;28;20034;-69
2020/12/01 07:34:21;;;;;;;19.80;9.25;;;0.20;82.40;;;-2.08;84.67;95860.63;4994388;28;20056;-65
2020/12/01 07:36:50;;;;;;;17.55;10.02;;;0.20;82.40;;;-2.07;83.62;95861.44;5027600;28;20127;-69
2020/12/01 07:39:26;;;;;;;20.10;9.48;;;0.20;82.40;;;-2.06;84.49;95863.88;4973987;28;20062;-67
2020/12/01 07:42:00;;;;;;;17.95;10.07;;;0.30;82.30;;;-2.05;84.49;95860.38;4983132;28;20031;-67
2020/12/01 07:44:38;;;;;;;30.38;14.70;;;0.20;82.40;;;-2.04;84.76;95866.34;5022337;28;20509;-66
2020/12/01 07:47:11;;;;;;;22.92;10.30;;;0.40;82.40;;;-2.02;84.29;95865.31;5003427;28;20045;-69
2020/12/01 07:49:37;;;;;;;22.27;10.55;;;0.30;82.40;;;-2.00;83.91;95860.88;4998941;28;20298;-67
2020/12/01 07:52:19;;;;;;;18.67;9.77;;;0.30;82.50;;;-1.97;85.19;95858.03;5029023;28;20125;-66
2020/12/01 07:54:48;;;;;;;22.42;10.75;;;0.40;82.40;;;-1.97;84.38;95858.03;5010480;28;20042;-68
2020/12/01 07:57:20;;;;;;;20.10;11.00;;;0.40;82.50;;;-1.94;84.79;95852.66;5018232;28;20026;-67
2020/12/01 07:59:48;;;;;;;23.60;11.27;;;0.40;82.50;;;-1.93;83.93;95856.88;5024554;28;20116;-69
2020/12/01 08:02:15;;;;;;;27.23;12.98;;;0.40;82.40;;;-1.89;84.00;95847.94;5050704;28;20044;-67
2020/12/01 08:04:41;;;;;;;23.95;11.73;;;0.50;82.40;;;-1.86;83.82;95845.13;5011075;28;20496;-65
2020/12/01 08:07:13;;;;;;;19.63;9.85;;;0.50;82.10;;;-1.82;84.94;95852.63;5025016;28;20355;-68
2020/12/01 08:09:39;;;;;;;19.05;8.90;;;0.60;82.00;;;-1.80;84.02;95843.03;5014660;28;20033;-65
2020/12/01 08:12:09;;;;;;;20.00;10.02;;;0.60;82.00;;;-1.76;84.35;95849.59;4994389;28;20054;-65
2020/12/01 08:14:35;;;;;;;22.35;10.38;;;0.60;82.20;;;-1.76;84.14;95844.44;4966781;28;20038;-66
2020/12/01 08:17:07;;;;;;;19.73;10.00;;;0.60;82.30;;;-1.69;84.63;95853.31;5012390;28;20048;-66
2020/12/01 08:19:33;;;;;;;21.15;9.60;;;0.70;82.30;;;-1.65;84.49;95846.97;5013674;28;20056;-68
2020/12/01 08:21:59;;;;;;;20.65;9.55;;;0.70;82.50;;;-1.62;84.36;95844.97;4997923;28;20453;-68
2020/12/01 08:24:27;;;;;;;22.15;10.25;;;0.80;82.50;;;-1.57;83.79;95842.06;4978036;28;20068;-69
2020/12/01 08:27:16;;;;;;;23.35;10.50;;;0.80;82.40;;;-1.53;85.01;95833.13;4987870;28;20110;-70
2020/12/01 08:29:42;;;;;;;18.77;9.68;;;0.80;82.20;;;-1.50;84.02;95835.47;5001607;28;20064;-67
2020/12/01 08:32:34;;;;;;;17.90;9.25;;;0.90;82.30;;;-1.45;85.14;95837.69;5013908;28;20037;-68
2020/12/01 08:35:18;;;;;;;20.95;9.38;;;0.90;82.30;;;-1.41;84.79;95826.16;5003688;28;20113;-70
2020/12/01 08:38:22;;;;;;;19.33;9.23;;;1.00;82.30;;;-1.38;86.32;95824.16;5016047;28;20038;-69
2020/12/01 08:41:18;;;;;;;25.02;11.93;;;1.00;82.60;;;-1.33;85.10;95832.38;5004046;28;20102;-67
2020/12/01 08:43:57;;;;;;;38.97;20.48;;;1.10;82.40;;;-1.28;85.16;95830.22;5032951;28;20029;-67
2020/12/01 08:46:26;;;;;;;33.65;14.77;;;1.20;82.30;;;-1.24;84.55;95826.47;5012312;28;20033;-70
2020/12/01 08:49:07;;;;;;;27.33;13.63;;;1.20;81.90;;;-1.23;84.80;95828.09;4981276;28;20040;-67
2020/12/01 08:51:59;;;;;;;29.53;12.37;;;1.20;82.00;;;-1.18;85.15;95824.31;4995125;28;20052;-69
2020/12/01 08:54:31;;;;;;;21.85;9.65;;;1.20;81.70;;;-1.15;84.36;95830.06;5011101;28;20041;-67
2020/12/01 08:57:13;;;;;;;27.35;12.23;;;1.30;81.80;;;-1.12;85.15;95829.00;5011999;28;20033;-67
2020/12/01 08:59:53;;;;;;;22.10;10.20;;;1.30;81.70;;;-1.08;84.96;95827.81;5012451;28;20030;-69
2020/12/01 09:02:20;;;;;;;21.90;10.32;;;1.40;81.50;;;-1.05;84.33;95830.16;5029515;28;20039;-66
2020/12/01 09:04:45;;;;;;;19.55;9.95;;;1.40;81.50;;;-1.04;83.88;95826.63;5007928;28;20489;-69
2020/12/01 09:07:17;;;;;;;20.30;10.02;;;1.50;81.50;;;-0.98;84.17;95831.28;5009905;28;20060;-66
2020/12/01 09:09:47;;;;;;;22.02;9.52;;;1.60;81.60;;;-0.92;84.81;95831.59;5030728;28;20087;-66
2020/12/01 09:12:35;;;;;;;14.52;8.60;;;1.60;81.10;;;-0.87;85.06;95836.41;5013884;28;20036;-69
2020/12/01 09:15:17;;;;;;;19.27;9.48;;;1.70;81.00;;;-0.83;84.86;95835.19;5024596;28;20040;-68
2020/12/01 09:23:24;;;;;;;17.40;8.25;;;1.90;80.80;;;-0.65;84.77;95838.84;4973773;28;20045;-69
2020/12/01 09:25:51;;;;;;;17.75;9.13;;;1.90;80.80;;;-0.59;84.10;95836.72;5011417;28;20719;-67
2020/12/01 09:28:30;;;;;;;17.35;9.40;;;2.10;80.80;;;-0.56;84.65;95828.69;5011397;28;20107;-65
2020/12/01 09:31:04;;;;;;;16.50;9.13;;;1.90;80.50;;;-0.54;84.81;95834.56;5016456;28;20021;-69
2020/12/01 09:33:29;;;;;;;17.65;9.88;;;2.00;80.50;;;-0.49;83.74;95837.56;5003507;28;20045;-65
2020/12/01 09:35:55;;;;;;;15.25;7.95;;;2.10;80.60;;;-0.44;84.14;95835.44;5021155;28;20037;-66
2020/12/01 09:38:21;;;;;;;17.08;9.20;;;2.20;80.40;;;-0.39;83.67;95835.88;4988228;28;20723;-66
2020/12/01 09:40:49;;;;;;;16.85;8.80;;;2.20;80.20;;;-0.33;83.68;95837.94;5007892;28;20038;-63
2020/12/01 09:43:26;;;;;;;18.40;9.50;;;2.30;79.90;;;-0.26;83.94;95839.03;5006976;28;20053;-66
2020/12/01 09:45:53;;;;;;;18.45;8.57;;;2.40;79.80;;;-0.20;84.15;95828.22;5007915;28;20046;-69
2020/12/01 09:48:35;;;;;;;19.65;9.73;;;2.60;79.60;;;-0.17;83.91;95817.63;5007395;28;20120;-70
2020/12/01 09:51:01;;;;;;;18.17;9.25;;;2.60;79.60;;;-0.12;83.77;95830.97;5008834;28;20372;-69
2020/12/01 10:09:26;;;;;;;22.90;10.32;;;2.70;78.70;;;0.07;83.67;95813.88;5011889;28;20410;-67
2020/12/01 10:19:54;;;;;;;21.98;11.15;;;2.80;78.60;;;0.17;83.28;95814.72;5017186;28;20420;-66
2020/12/01 10:28:57;;;;;;;19.40;10.20;;;2.80;78.90;;;0.17;83.58;95805.19;5027046;28;20025;-67
2020/12/01 10:35:44;;;;;;;33.95;16.63;;;2.60;79.80;;;0.13;83.51;95803.00;4994303;28;20037;-67
2020/12/01 10:38:09;;;;;;;25.63;14.48;;;2.60;80.00;;;0.11;83.79;95794.56;5022340;28;20069;-68
2020/12/01 10:40:35;;;;;;;25.10;13.95;;;2.60;80.20;;;0.16;83.94;95802.75;4975349;28;20049;-66
2020/12/01 10:43:01;;;;;;;27.92;16.80;;;2.80;80.10;;;0.18;83.58;95800.84;5013009;28;20097;-67
2020/12/01 10:45:27;;;;;;;30.15;18.13;;;2.70;79.80;;;0.19;83.52;95792.94;4999493;28;20038;-68
2020/12/01 10:47:53;;;;;;;32.97;20.92;;;2.70;80.00;;;0.22;83.68;95797.84;4987349;28;20037;-68
2020/12/01 10:50:26;;;;;;;36.90;18.55;;;2.80;79.90;;;0.27;83.82;95800.06;4975493;28;20038;-67
2020/12/01 10:52:52;;;;;;;34.17;17.02;;;2.90;79.80;;;0.27;83.99;95795.69;5006718;28;20488;-67
2020/12/01 10:55:22;;;;;;;31.17;15.65;;;2.90;79.80;;;0.31;83.70;95796.25;5014957;28;20136;-66
2020/12/01 10:57:51;;;;;;;37.80;18.58;;;2.90;79.90;;;0.35;84.22;95805.38;5011252;28;20036;-69